Time;durP1;ratioP1;P1;durP2;ratioP2;P2;SDS_P1;SDS_P2;PMS_P1;PMS_P2;Temp;Humidity;BMP_temperature;BMP_pressure;BME280_temperature;BME280_humidity;BME280_pressure;Samples;Min_cycle;Max_cycle;Signal;HPM_P1;HPM_P2
2021/12/15 00:01:45;;;;;;;98.05;29.00;;;;;;;;;;5052442;28;20088;-78
2021/12/15 00:04:11;;;;;;;104.68;30.58;;;;;;;;;;5053674;28;20109;-77
2021/12/15 00:06:38;;;;;;;107.28;28.83;;;;;;;;;;5068584;28;20096;-78
2021/12/15 00:09:06;;;;;;;107.88;31.40;;;;;;;;;;5047304;28;20657;-78
2021/12/15 00:11:36;;;;;;;118.15;31.30;;;;;;;;;;5069491;28;20104;-78
2021/12/15 00:14:07;;;;;;;110.88;31.98;;;;;;;;;;5071273;28;20084;-78
2021/12/15 00:16:33;;;;;;;;;;;;;;;;;;5052677;28;20057;-76
2021/12/15 00:19:00;;;;;;;106.80;29.35;;;;;;;;;;5063378;28;46737;-77
2021/12/15 00:21:26;;;;;;;107.65;32.40;;;;;;;;;;5070683;28;20057;-78
2021/12/15 00:23:53;;;;;;;100.57;32.28;;;;;;;;;;5052508;28;20053;-78
2021/12/15 00:26:19;;;;;;;105.03;32.13;;;;;;;;;;5064031;28;20057;-78
2021/12/15 00:28:46;;;;;;;103.75;33.13;;;;;;;;;;5051791;28;20045;-75
2021/12/15 00:31:13;;;;;;;99.68;32.30;;;;;;;;;;5070886;28;20039;-78
2021/12/15 00:33:40;;;;;;;102.82;32.40;;;;;;;;;;5070455;28;20057;-77
2021/12/15 00:36:06;;;;;;;102.88;32.33;;;;;;;;;;5070771;28;20056;-77
2021/12/15 00:38:33;;;;;;;107.53;32.78;;;;;;;;;;5053063;28;20131;-78
2021/12/15 00:40:59;;;;;;;104.50;33.58;;;;;;;;;;5052886;28;20057;-78
2021/12/15 00:43:26;;;;;;;105.45;32.88;;;;;;;;;;5052744;28;20135;-78
2021/12/15 00:45:52;;;;;;;110.72;32.85;;;;;;;;;;5050920;28;20088;-75
2021/12/15 00:48:19;;;;;;;101.20;31.98;;;;;;;;;;5053228;28;20491;-78
2021/12/15 00:50:46;;;;;;;105.57;32.22;;;;;;;;;;5070368;28;20872;-77
2021/12/15 00:53:13;;;;;;;101.13;31.85;;;;;;;;;;5053005;28;20069;-78
2021/12/15 00:55:39;;;;;;;94.57;31.50;;;;;;;;;;5070722;28;20170;-77
2021/12/15 00:58:07;;;;;;;100.18;30.65;;;;;;;;;;5051776;28;20107;-78
2021/12/15 01:00:35;;;;;;;110.65;31.83;;;;;;;;;;5053035;28;20108;-77
2021/12/15 01:03:02;;;;;;;97.65;31.38;;;;;;;;;;5070300;28;20057;-78
2021/12/15 01:05:32;;;;;;;88.70;32.17;;;;;;;;;;5051185;28;20072;-77
2021/12/15 01:08:00;;;;;;;92.05;31.67;;;;;;;;;;5052469;28;20091;-78
2021/12/15 01:10:38;;;;;;;104.97;32.45;;;;;;;;;;5069241;28;20547;-77
2021/12/15 01:21:07;;;;;;;88.35;31.67;;;;;;;;;;5069951;28;20057;-78
2021/12/15 01:23:34;;;;;;;91.53;32.42;;;;;;;;;;5052476;28;20100;-78
2021/12/15 01:26:03;;;;;;;98.63;33.60;;;;;;;;;;5052194;28;20170;-78
2021/12/15 01:28:30;;;;;;;95.00;32.55;;;;;;;;;;5052562;28;20053;-78
2021/12/15 01:30:57;;;;;;;90.07;30.75;;;;;;;;;;5069443;28;20130;-76
2021/12/15 01:33:24;;;;;;;96.18;33.08;;;;;;;;;;5069942;28;20552;-77
2021/12/15 01:35:52;;;;;;;89.07;32.92;;;;;;;;;;5076016;28;20057;-75
2021/12/15 01:38:20;;;;;;;96.95;32.70;;;;;;;;;;5070435;28;20136;-78
2021/12/15 01:40:47;;;;;;;87.13;31.33;;;;;;;;;;5059612;28;20093;-78
2021/12/15 01:43:19;;;;;;;85.15;31.92;;;;;;;;;;5033731;28;20057;-77
2021/12/15 01:48:35;;;;;;;102.97;32.60;;;;;;;;;;5066907;28;20051;-78
2021/12/15 01:51:02;;;;;;;90.60;31.92;;;;;;;;;;5049150;28;20113;-78
2021/12/15 01:53:29;;;;;;;89.32;31.38;;;;;;;;;;5064942;28;20053;-78
2021/12/15 01:55:55;;;;;;;87.63;33.28;;;;;;;;;;5056092;28;20057;-78
2021/12/15 01:58:21;;;;;;;89.07;31.45;;;;;;;;;;5051991;28;20070;-79
2021/12/15 02:00:50;;;;;;;91.22;32.08;;;;;;;;;;5052200;28;20057;-78
2021/12/15 02:03:17;;;;;;;92.32;33.53;;;;;;;;;;5069730;28;20061;-77
2021/12/15 02:05:44;;;;;;;89.38;32.38;;;;;;;;;;5067108;28;20143;-78
2021/12/15 02:08:12;;;;;;;85.78;32.70;;;;;;;;;;5069406;28;20061;-78
2021/12/15 02:10:40;;;;;;;91.88;32.72;;;;;;;;;;5051040;28;20871;-78
2021/12/15 02:13:09;;;;;;;90.60;33.03;;;;;;;;;;5051479;28;20130;-78
2021/12/15 02:15:37;;;;;;;99.20;33.22;;;;;;;;;;5071838;28;20072;-78
2021/12/15 02:18:05;;;;;;;90.55;32.75;;;;;;;;;;5070112;28;20099;-77
2021/12/15 02:20:36;;;;;;;97.35;31.83;;;;;;;;;;5069802;28;20057;-76
2021/12/15 02:23:03;;;;;;;97.03;33.80;;;;;;;;;;5069648;28;20052;-78
2021/12/15 02:25:30;;;;;;;100.05;33.33;;;;;;;;;;5050763;28;20103;-75
2021/12/15 02:27:56;;;;;;;98.25;32.88;;;;;;;;;;5052004;28;20092;-77
2021/12/15 02:30:41;;;;;;;99.72;31.85;;;;;;;;;;5050963;28;20057;-77
2021/12/15 02:38:36;;;;;;;99.65;32.22;;;;;;;;;;5069320;28;20088;-78
2021/12/15 02:41:10;;;;;;;90.18;33.25;;;;;;;;;;5051046;28;20088;-75
2021/12/15 02:43:37;;;;;;;97.60;32.88;;;;;;;;;;5069082;28;20566;-76
2021/12/15 02:46:03;;;;;;;91.55;33.25;;;;;;;;;;5071472;28;20041;-78
2021/12/15 02:48:30;;;;;;;96.60;32.53;;;;;;;;;;5055669;28;20088;-76
2021/12/15 02:50:57;;;;;;;103.57;33.00;;;;;;;;;;5051910;28;20053;-78
2021/12/15 02:53:23;;;;;;;98.82;35.00;;;;;;;;;;5051114;28;20610;-77
2021/12/15 02:55:50;;;;;;;102.38;33.13;;;;;;;;;;5050509;28;20100;-78
2021/12/15 02:58:19;;;;;;;95.15;33.20;;;;;;;;;;5070061;28;20073;-79
2021/12/15 03:00:53;;;;;;;92.93;32.67;;;;;;;;;;5051879;28;20045;-77
2021/12/15 03:06:08;;;;;;;99.13;34.38;;;;;;;;;;5066552;28;20508;-78
2021/12/15 03:16:47;;;;;;;102.63;33.80;;;;;;;;;;5068953;28;20052;-79
2021/12/15 03:19:13;;;;;;;106.40;34.65;;;;;;;;;;5069557;28;20057;-79
2021/12/15 03:21:40;;;;;;;105.15;34.45;;;;;;;;;;5066179;28;20108;-78
2021/12/15 03:24:13;;;;;;;95.50;33.75;;;;;;;;;;5049511;28;20057;-77
2021/12/15 03:26:48;;;;;;;97.95;34.25;;;;;;;;;;5050954;28;20531;-77
2021/12/15 03:35:47;;;;;;;98.00;33.95;;;;;;;;;;5058725;28;20053;-77
2021/12/15 03:37:38;;;;;;;95.88;33.08;;;;;;;;;;5066438;28;20087;-78
2021/12/15 03:40:11;;;;;;;95.90;32.72;;;;;;;;;;5073539;28;20664;-78
2021/12/15 03:42:40;;;;;;;98.35;34.25;;;;;;;;;;5037990;28;20112;-78
2021/12/15 03:45:09;;;;;;;97.45;34.15;;;;;;;;;;5048892;28;20435;-79
2021/12/15 03:47:38;;;;;;;101.70;33.10;;;;;;;;;;5073941;28;20255;-77
2021/12/15 03:50:06;;;;;;;98.93;32.38;;;;;;;;;;5055509;28;20111;-78
2021/12/15 03:52:33;;;;;;;98.95;33.60;;;;;;;;;;5053315;28;20173;-77
2021/12/15 03:54:59;;;;;;;103.20;33.42;;;;;;;;;;5065337;28;20053;-77
2021/12/15 03:57:25;;;;;;;94.93;33.15;;;;;;;;;;5054320;28;20084;-77
2021/12/15 03:59:54;;;;;;;103.10;34.53;;;;;;;;;;5052133;28;20468;-78
2021/12/15 04:02:20;;;;;;;95.07;33.53;;;;;;;;;;5070664;28;20092;-77
2021/12/15 04:04:48;;;;;;;99.50;32.50;;;;;;;;;;5052497;28;20061;-75
2021/12/15 04:07:16;;;;;;;96.43;33.13;;;;;;;;;;5051464;28;20052;-78
2021/12/15 04:09:43;;;;;;;102.95;34.88;;;;;;;;;;5054075;28;20049;-78
2021/12/15 04:12:09;;;;;;;106.70;32.15;;;;;;;;;;5078881;28;20053;-79
2021/12/15 04:14:44;;;;;;;98.13;33.47;;;;;;;;;;5051264;28;20520;-77
2021/12/15 04:17:26;;;;;;;94.55;34.08;;;;;;;;;;5050169;28;20156;-78
2021/12/15 04:19:54;;;;;;;105.30;32.97;;;;;;;;;;5054300;28;20599;-78
2021/12/15 04:22:21;;;;;;;102.43;33.30;;;;;;;;;;5071374;28;20915;-78
2021/12/15 04:24:47;;;;;;;102.60;33.97;;;;;;;;;;5053726;28;20053;-78
2021/12/15 04:27:13;;;;;;;98.57;33.83;;;;;;;;;;5050682;28;20106;-79
2021/12/15 04:29:40;;;;;;;93.97;32.25;;;;;;;;;;5079196;28;20116;-78
2021/12/15 04:32:10;;;;;;;106.10;33.25;;;;;;;;;;5049713;28;20054;-76
2021/12/15 04:34:36;;;;;;;101.00;33.30;;;;;;;;;;5050953;28;20065;-79
2021/12/15 04:37:02;;;;;;;98.63;32.20;;;;;;;;;;5051044;28;20041;-78
2021/12/15 04:39:29;;;;;;;100.25;32.92;;;;;;;;;;5053781;28;20079;-77
2021/12/15 04:41:57;;;;;;;94.95;32.10;;;;;;;;;;5070578;28;20505;-78
2021/12/15 04:44:25;;;;;;;99.53;32.47;;;;;;;;;;5071489;28;20065;-78
2021/12/15 04:46:59;;;;;;;94.30;32.58;;;;;;;;;;5072411;28;20084;-79
2021/12/15 04:49:28;;;;;;;100.68;31.40;;;;;;;;;;5051962;28;20053;-78
2021/12/15 04:51:54;;;;;;;92.18;32.78;;;;;;;;;;5071762;28;20052;-78
2021/12/15 04:54:21;;;;;;;94.40;32.13;;;;;;;;;;5052785;28;20065;-79
2021/12/15 04:56:47;;;;;;;97.63;32.78;;;;;;;;;;5071052;28;20061;-78
2021/12/15 04:59:15;;;;;;;93.63;32.95;;;;;;;;;;5071417;28;20053;-77
2021/12/15 05:01:41;;;;;;;99.85;33.03;;;;;;;;;;5069783;28;20084;-79
2021/12/15 05:04:09;;;;;;;93.22;31.98;;;;;;;;;;5073402;28;20128;-78
2021/12/15 05:06:35;;;;;;;101.20;32.70;;;;;;;;;;5070573;28;20088;-77
2021/12/15 05:09:03;;;;;;;97.95;32.42;;;;;;;;;;5069709;28;20138;-77
2021/12/15 05:11:29;;;;;;;98.47;32.40;;;;;;;;;;5051890;28;20110;-79
2021/12/15 05:13:56;;;;;;;92.13;30.65;;;;;;;;;;5069524;28;20496;-79
2021/12/15 05:16:23;;;;;;;98.75;32.10;;;;;;;;;;5050404;28;20512;-76
2021/12/15 05:18:49;;;;;;;88.72;32.67;;;;;;;;;;5053644;28;20091;-78
2021/12/15 05:21:17;;;;;;;94.10;32.85;;;;;;;;;;5055834;28;20053;-77
2021/12/15 05:23:46;;;;;;;93.22;32.45;;;;;;;;;;5052767;28;20401;-78
2021/12/15 05:26:12;;;;;;;97.57;31.67;;;;;;;;;;5060886;28;20080;-78
2021/12/15 05:28:39;;;;;;;101.90;32.05;;;;;;;;;;5052942;28;20049;-79
2021/12/15 05:31:05;;;;;;;100.40;32.05;;;;;;;;;;5071589;28;20049;-76
2021/12/15 05:33:32;;;;;;;104.03;31.80;;;;;;;;;;5053155;28;20133;-78
2021/12/15 05:35:58;;;;;;;96.60;31.88;;;;;;;;;;5051758;28;20084;-79
2021/12/15 05:38:25;;;;;;;98.63;31.80;;;;;;;;;;5053161;28;20053;-79
2021/12/15 05:40:52;;;;;;;112.00;33.00;;;;;;;;;;5066865;28;20053;-79
2021/12/15 05:43:18;;;;;;;106.47;32.72;;;;;;;;;;5052953;28;20095;-78
2021/12/15 05:45:45;;;;;;;105.70;33.63;;;;;;;;;;5062612;28;20131;-79
2021/12/15 05:48:13;;;;;;;107.03;33.17;;;;;;;;;;5068470;28;20049;-79
2021/12/15 05:50:40;;;;;;;104.35;33.25;;;;;;;;;;5070541;28;20119;-78
2021/12/15 05:53:07;;;;;;;97.53;32.15;;;;;;;;;;5074426;28;20064;-79
2021/12/15 05:55:34;;;;;;;94.70;32.78;;;;;;;;;;5055660;28;20123;-78
2021/12/15 05:58:01;;;;;;;92.43;32.67;;;;;;;;;;5051692;28;20061;-77
2021/12/15 06:00:30;;;;;;;96.53;31.88;;;;;;;;;;5052714;28;20104;-79
2021/12/15 06:02:57;;;;;;;97.60;32.35;;;;;;;;;;5052066;28;20088;-79
2021/12/15 06:05:24;;;;;;;102.75;32.95;;;;;;;;;;5052762;28;20397;-79
2021/12/15 06:07:51;;;;;;;96.68;32.13;;;;;;;;;;5052707;28;20056;-80
2021/12/15 06:10:19;;;;;;;105.82;33.88;;;;;;;;;;5074566;28;20057;-77
2021/12/15 06:12:48;;;;;;;102.68;33.80;;;;;;;;;;5069653;28;20080;-76
2021/12/15 06:15:20;;;;;;;102.75;31.83;;;;;;;;;;5053309;28;20087;-79
2021/12/15 06:17:50;;;;;;;104.68;32.95;;;;;;;;;;5051893;28;20053;-79
2021/12/15 06:20:17;;;;;;;97.25;31.83;;;;;;;;;;5071292;28;20088;-78
2021/12/15 06:22:46;;;;;;;107.35;31.85;;;;;;;;;;5045031;28;20140;-77
2021/12/15 06:25:13;;;;;;;106.25;32.05;;;;;;;;;;5046436;28;20092;-79
2021/12/15 06:27:40;;;;;;;110.65;31.80;;;;;;;;;;5056559;28;20060;-79
2021/12/15 06:30:08;;;;;;;112.97;31.73;;;;;;;;;;5069734;28;20103;-78
2021/12/15 06:32:35;;;;;;;117.28;31.95;;;;;;;;;;5051874;28;20052;-78
2021/12/15 06:35:02;;;;;;;111.65;32.92;;;;;;;;;;5068952;28;20076;-79
2021/12/15 06:37:29;;;;;;;112.68;31.50;;;;;;;;;;5069667;28;20084;-79
2021/12/15 06:39:55;;;;;;;105.15;31.35;;;;;;;;;;5052610;28;20083;-77
2021/12/15 06:42:22;;;;;;;107.82;32.45;;;;;;;;;;5062497;28;20053;-79
2021/12/15 06:44:48;;;;;;;117.40;32.38;;;;;;;;;;5050830;28;20092;-79
2021/12/15 06:57:13;;;;;;;118.30;30.67;;;;;;;;;;5070481;28;20118;-80
2021/12/15 06:58:21;;;;;;;127.53;31.52;;;;;;;;;;5065249;28;20093;-79
2021/12/15 07:00:50;;;;;;;123.35;32.47;;;;;;;;;;5049653;28;20076;-80
2021/12/15 07:03:17;;;;;;;127.63;32.33;;;;;;;;;;5044984;28;20052;-78
2021/12/15 07:05:44;;;;;;;123.88;32.42;;;;;;;;;;5050719;28;20113;-80
2021/12/15 07:08:12;;;;;;;130.13;32.90;;;;;;;;;;5051007;28;20049;-78
2021/12/15 07:10:41;;;;;;;131.13;33.55;;;;;;;;;;5051954;28;20169;-80
2021/12/15 07:13:08;;;;;;;122.00;31.90;;;;;;;;;;5071669;28;20131;-79
2021/12/15 07:15:36;;;;;;;128.00;32.30;;;;;;;;;;5079615;28;20080;-79
2021/12/15 07:18:05;;;;;;;132.98;35.00;;;;;;;;;;5074464;28;20848;-78
2021/12/15 07:20:46;;;;;;;137.68;33.58;;;;;;;;;;5067582;28;20088;-78
2021/12/15 07:23:17;;;;;;;129.65;33.05;;;;;;;;;;5050936;28;20099;-79
2021/12/15 07:25:46;;;;;;;128.65;33.55;;;;;;;;;;5051995;28;20063;-77
2021/12/15 07:28:16;;;;;;;127.78;32.90;;;;;;;;;;5051009;28;20053;-77
2021/12/15 07:30:43;;;;;;;130.73;32.40;;;;;;;;;;5069447;28;20807;-79
2021/12/15 07:33:10;;;;;;;137.68;35.88;;;;;;;;;;5060820;28;20049;-80
2021/12/15 07:35:37;;;;;;;136.60;34.50;;;;;;;;;;5048972;28;20918;-79
2021/12/15 07:38:04;;;;;;;137.65;34.28;;;;;;;;;;5071578;28;20076;-79
2021/12/15 07:40:31;;;;;;;123.97;32.42;;;;;;;;;;5051484;28;20417;-79
2021/12/15 07:43:10;;;;;;;147.90;36.08;;;;;;;;;;5050813;28;20057;-79
2021/12/15 07:45:39;;;;;;;136.52;33.65;;;;;;;;;;5061853;28;20103;-80
2021/12/15 07:48:08;;;;;;;128.38;33.95;;;;;;;;;;5071041;28;20095;-79
2021/12/15 07:50:35;;;;;;;129.32;32.80;;;;;;;;;;5069283;28;20504;-79
2021/12/15 07:53:01;;;;;;;120.60;31.00;;;;;;;;;;5067846;28;20076;-77
2021/12/15 07:55:27;;;;;;;131.82;33.90;;;;;;;;;;5064903;28;20081;-80
2021/12/15 07:57:54;;;;;;;131.13;32.42;;;;;;;;;;5050826;28;20057;-79
2021/12/15 08:00:21;;;;;;;127.35;33.42;;;;;;;;;;5050261;28;20064;-79
2021/12/15 08:02:47;;;;;;;130.82;33.28;;;;;;;;;;5050632;28;20111;-77
2021/12/15 08:05:14;;;;;;;135.50;34.25;;;;;;;;;;5067055;28;20052;-79
2021/12/15 08:07:41;;;;;;;136.82;33.63;;;;;;;;;;5045626;28;20049;-79
2021/12/15 08:10:10;;;;;;;122.57;32.42;;;;;;;;;;5065394;28;20046;-79
2021/12/15 08:12:37;;;;;;;118.15;32.58;;;;;;;;;;5044972;28;20125;-78
2021/12/15 08:15:06;;;;;;;122.60;34.15;;;;;;;;;;5067235;28;20053;-79
2021/12/15 08:17:32;;;;;;;114.70;33.22;;;;;;;;;;5048044;28;20171;-78
2021/12/15 08:19:59;;;;;;;126.43;33.50;;;;;;;;;;5053261;28;20048;-79
2021/12/15 08:22:25;;;;;;;122.88;31.90;;;;;;;;;;5067783;28;20057;-78
2021/12/15 08:24:51;;;;;;;124.20;32.63;;;;;;;;;;5052961;28;20531;-79
2021/12/15 08:27:20;;;;;;;128.73;31.42;;;;;;;;;;5055512;28;20563;-78
2021/12/15 08:29:46;;;;;;;117.90;32.55;;;;;;;;;;5052042;28;20065;-78
2021/12/15 08:32:13;;;;;;;118.82;32.38;;;;;;;;;;5070500;28;20064;-78
2021/12/15 08:34:39;;;;;;;122.45;32.42;;;;;;;;;;5072212;28;20103;-79
2021/12/15 08:37:06;;;;;;;110.53;30.77;;;;;;;;;;5053521;28;20854;-79
2021/12/15 08:39:33;;;;;;;107.18;31.65;;;;;;;;;;5052094;28;20897;-79
2021/12/15 08:41:59;;;;;;;118.85;32.95;;;;;;;;;;5052070;28;20363;-79
2021/12/15 08:44:25;;;;;;;115.00;31.80;;;;;;;;;;5054957;28;20040;-77
2021/12/15 08:46:53;;;;;;;113.97;31.30;;;;;;;;;;5070772;28;20049;-77
2021/12/15 08:49:21;;;;;;;117.85;31.65;;;;;;;;;;5074419;28;20112;-80
2021/12/15 08:51:48;;;;;;;123.97;34.33;;;;;;;;;;5054424;28;20069;-78
2021/12/15 08:54:15;;;;;;;106.32;30.23;;;;;;;;;;5069359;28;20100;-77
2021/12/15 08:56:42;;;;;;;106.78;29.95;;;;;;;;;;5049712;28;20645;-78
2021/12/15 08:59:09;;;;;;;114.88;31.05;;;;;;;;;;5068606;28;20097;-78
2021/12/15 09:01:36;;;;;;;112.10;29.10;;;;;;;;;;5070496;28;20057;-79
2021/12/15 09:04:03;;;;;;;123.10;32.35;;;;;;;;;;5051728;28;20057;-78
2021/12/15 09:06:29;;;;;;;106.85;30.95;;;;;;;;;;5051869;28;20091;-78
2021/12/15 09:08:56;;;;;;;106.05;29.17;;;;;;;;;;5069321;28;20554;-79
2021/12/15 09:11:24;;;;;;;108.20;31.85;;;;;;;;;;5054600;28;20041;-80
2021/12/15 09:13:52;;;;;;;104.53;30.38;;;;;;;;;;5064296;28;20061;-80
2021/12/15 09:16:20;;;;;;;97.57;27.98;;;;;;;;;;5072113;28;20049;-78
2021/12/15 09:18:47;;;;;;;99.43;30.50;;;;;;;;;;5053250;28;20899;-79
2021/12/15 09:21:15;;;;;;;105.93;29.35;;;;;;;;;;5067987;28;20588;-78
2021/12/15 09:23:41;;;;;;;98.65;27.40;;;;;;;;;;5054361;28;20092;-80
2021/12/15 09:26:08;;;;;;;108.55;30.13;;;;;;;;;;5072066;28;20089;-77
2021/12/15 09:28:35;;;;;;;104.63;29.40;;;;;;;;;;5050816;28;20080;-79
2021/12/15 09:31:02;;;;;;;104.35;29.27;;;;;;;;;;5050180;28;20567;-79
2021/12/15 09:33:30;;;;;;;102.60;28.77;;;;;;;;;;5068036;28;20055;-79
2021/12/15 09:35:58;;;;;;;88.82;27.15;;;;;;;;;;5066491;28;20587;-79
2021/12/15 09:38:24;;;;;;;96.80;28.17;;;;;;;;;;5054331;28;20834;-79
2021/12/15 09:40:53;;;;;;;90.45;27.58;;;;;;;;;;5053846;28;20111;-79
2021/12/15 09:43:20;;;;;;;88.60;26.92;;;;;;;;;;5054658;28;20052;-80
2021/12/15 09:46:03;;;;;;;94.55;27.45;;;;;;;;;;5055021;28;20058;-79
2021/12/15 09:57:13;;;;;;;73.05;25.58;;;;;;;;;;5070526;28;20049;-80
2021/12/15 10:05:02;;;;;;;77.15;27.45;;;;;;;;;;5070945;28;20091;-76
2021/12/15 10:18:29;;;;;;;71.68;24.00;;;;;;;;;;5061746;28;20116;-79
2021/12/15 10:20:56;;;;;;;66.22;22.80;;;;;;;;;;5063511;28;20594;-80
2021/12/15 10:23:30;;;;;;;71.47;24.45;;;;;;;;;;5063263;28;20061;-80
2021/12/15 10:25:57;;;;;;;58.80;22.52;;;;;;;;;;5053392;28;20111;-78
2021/12/15 10:28:25;;;;;;;61.47;22.30;;;;;;;;;;5048999;28;20127;-80
2021/12/15 10:31:03;;;;;;;59.03;22.95;;;;;;;;;;5050237;28;20053;-80
2021/12/15 10:33:37;;;;;;;55.75;22.23;;;;;;;;;;5051218;28;20056;-80
2021/12/15 10:36:10;;;;;;;60.22;22.48;;;;;;;;;;5069546;28;20053;-78
2021/12/15 10:38:44;;;;;;;54.25;21.80;;;;;;;;;;5052887;28;20087;-81
2021/12/15 10:41:13;;;;;;;55.50;22.30;;;;;;;;;;5069282;28;20057;-80
2021/12/15 10:43:47;;;;;;;53.60;22.27;;;;;;;;;;5054112;28;20092;-79
2021/12/15 10:46:16;;;;;;;54.13;23.77;;;;;;;;;;5048663;28;20099;-79
2021/12/15 10:48:46;;;;;;;47.45;21.50;;;;;;;;;;5068736;28;20049;-81
2021/12/15 10:51:25;;;;;;;59.42;22.23;;;;;;;;;;5048040;28;20061;-78
2021/12/15 10:53:53;;;;;;;50.00;21.77;;;;;;;;;;5063410;28;20597;-82
2021/12/15 10:56:21;;;;;;;44.13;20.63;;;;;;;;;;5051834;28;20131;-82
2021/12/15 10:58:50;;;;;;;50.58;21.83;;;;;;;;;;5068452;28;20100;-81
2021/12/15 11:01:49;;;;;;;54.78;21.35;;;;;;;;;;5055619;28;20120;-81
2021/12/15 11:04:22;;;;;;;47.22;22.17;;;;;;;;;;5024596;28;20063;-80
2021/12/15 11:07:24;;;;;;;42.90;19.90;;;;;;;;;;5049191;28;20042;-79
2021/12/15 11:09:53;;;;;;;44.28;20.15;;;;;;;;;;4968165;28;20901;-78
2021/12/15 11:12:26;;;;;;;43.45;19.33;;;;;;;;;;5048523;28;20045;-82
2021/12/15 11:14:54;;;;;;;48.15;21.05;;;;;;;;;;5038527;28;20057;-82
2021/12/15 11:17:26;;;;;;;42.40;18.98;;;;;;;;;;5050714;28;20493;-81
2021/12/15 11:20:01;;;;;;;46.47;20.90;;;;;;;;;;5051028;28;20052;-81
2021/12/15 11:22:37;;;;;;;42.10;19.73;;;;;;;;;;5064525;28;20516;-79
2021/12/15 11:25:22;;;;;;;47.22;20.10;;;;;;;;;;5046374;28;20092;-81
2021/12/15 11:27:53;;;;;;;46.63;19.48;;;;;;;;;;5062618;28;20095;-80
2021/12/15 11:30:40;;;;;;;43.33;18.83;;;;;;;;;;5051770;28;20069;-79
2021/12/15 11:33:09;;;;;;;43.08;19.75;;;;;;;;;;5052645;28;20095;-80
2021/12/15 11:35:38;;;;;;;42.00;19.10;;;;;;;;;;5052350;28;20076;-80
2021/12/15 11:38:10;;;;;;;41.13;18.35;;;;;;;;;;5044416;28;20056;-79
2021/12/15 11:40:38;;;;;;;41.13;18.67;;;;;;;;;;5070109;28;20037;-79
2021/12/15 11:43:06;;;;;;;42.67;18.45;;;;;;;;;;5052496;28;20408;-79
2021/12/15 11:45:34;;;;;;;39.70;17.83;;;;;;;;;;5072716;28;20057;-78
2021/12/15 11:48:11;;;;;;;38.58;17.60;;;;;;;;;;5073463;28;20068;-80
2021/12/15 11:50:38;;;;;;;38.70;17.73;;;;;;;;;;5072547;28;20112;-81
2021/12/15 11:53:05;;;;;;;37.20;17.10;;;;;;;;;;5072944;28;20123;-79
2021/12/15 11:55:33;;;;;;;37.67;17.13;;;;;;;;;;5053998;28;20524;-80
2021/12/15 11:58:00;;;;;;;34.08;15.73;;;;;;;;;;5053983;28;20104;-80
2021/12/15 12:00:28;;;;;;;36.15;16.45;;;;;;;;;;5054803;28;20064;-80
2021/12/15 12:02:57;;;;;;;34.85;16.67;;;;;;;;;;5071529;28;20064;-80
2021/12/15 12:05:25;;;;;;;37.53;15.70;;;;;;;;;;5069974;28;20522;-80
2021/12/15 12:07:54;;;;;;;32.42;16.58;;;;;;;;;;5053824;28;20080;-80
2021/12/15 12:10:32;;;;;;;31.30;15.75;;;;;;;;;;5051343;28;20053;-80
2021/12/15 12:13:12;;;;;;;33.50;16.05;;;;;;;;;;5050752;28;20057;-78
2021/12/15 12:15:41;;;;;;;32.10;15.43;;;;;;;;;;5049497;28;20049;-80
2021/12/15 12:18:09;;;;;;;34.20;15.50;;;;;;;;;;5051483;28;20115;-81
2021/12/15 12:20:38;;;;;;;33.75;15.18;;;;;;;;;;5061206;28;20097;-80
2021/12/15 12:23:06;;;;;;;30.58;15.18;;;;;;;;;;5040603;28;20602;-78
2021/12/15 12:25:36;;;;;;;27.98;13.75;;;;;;;;;;5056474;28;20103;-78
2021/12/15 12:28:03;;;;;;;26.77;14.05;;;;;;;;;;5053639;28;20044;-80
2021/12/15 12:30:35;;;;;;;24.27;11.98;;;;;;;;;;5067038;28;20053;-80
2021/12/15 12:33:04;;;;;;;26.92;12.13;;;;;;;;;;5066530;28;20104;-78
2021/12/15 12:35:32;;;;;;;26.85;12.10;;;;;;;;;;5050585;28;20523;-79
2021/12/15 12:38:00;;;;;;;21.23;10.70;;;;;;;;;;5067031;28;20052;-80
2021/12/15 12:40:30;;;;;;;23.67;10.90;;;;;;;;;;5067419;28;20045;-80
2021/12/15 12:42:56;;;;;;;20.85;9.75;;;;;;;;;;5050231;28;20088;-77
2021/12/15 12:45:30;;;;;;;22.95;10.07;;;;;;;;;;5052312;28;20061;-79
2021/12/15 12:48:26;;;;;;;24.33;10.60;;;;;;;;;;5052520;28;20451;-79
2021/12/15 12:59:25;;;;;;;25.10;11.18;;;;;;;;;;5072203;28;20976;-79
2021/12/15 13:01:52;;;;;;;24.85;10.60;;;;;;;;;;5071479;28;20065;-79
2021/12/15 13:04:19;;;;;;;22.42;10.38;;;;;;;;;;5053457;28;20607;-79
2021/12/15 13:06:46;;;;;;;20.92;10.30;;;;;;;;;;5053454;28;20111;-80
2021/12/15 13:09:17;;;;;;;22.45;11.20;;;;;;;;;;5053148;28;20084;-79
2021/12/15 13:11:48;;;;;;;18.73;10.73;;;;;;;;;;5054727;28;20053;-77
2021/12/15 13:14:20;;;;;;;20.08;10.73;;;;;;;;;;5053550;28;20614;-79
2021/12/15 13:16:50;;;;;;;23.20;10.10;;;;;;;;;;5052212;28;20076;-78
2021/12/15 13:19:20;;;;;;;22.00;10.35;;;;;;;;;;5054557;28;20053;-80
2021/12/15 13:21:48;;;;;;;25.48;11.32;;;;;;;;;;5071921;28;20088;-77
2021/12/15 13:28:41;;;;;;;25.50;10.65;;;;;;;;;;5053096;28;20057;-80
2021/12/15 13:30:05;;;;;;;25.02;11.48;;;;;;;;;;5072024;28;20049;-80
2021/12/15 13:32:44;;;;;;;22.15;11.32;;;;;;;;;;5061059;28;20562;-79
2021/12/15 13:35:22;;;;;;;26.05;11.63;;;;;;;;;;5053270;28;20049;-80
2021/12/15 13:37:52;;;;;;;21.40;10.50;;;;;;;;;;5072136;28;20073;-79
2021/12/15 13:40:37;;;;;;;21.63;10.25;;;;;;;;;;5052999;28;20107;-80
2021/12/15 13:43:03;;;;;;;21.48;11.35;;;;;;;;;;5053767;28;20667;-80
2021/12/15 13:45:31;;;;;;;21.00;10.23;;;;;;;;;;5072026;28;20057;-78
2021/12/15 13:47:58;;;;;;;19.45;9.93;;;;;;;;;;5071726;28;20061;-80
2021/12/15 13:50:29;;;;;;;21.23;11.23;;;;;;;;;;5070880;28;20535;-80
2021/12/15 13:52:55;;;;;;;;;;;;;;;;;;5054254;28;20057;-77
2021/12/15 13:55:21;;;;;;;19.95;10.23;;;;;;;;;;5052786;28;45004;-78
2021/12/15 13:57:48;;;;;;;21.10;10.13;;;;;;;;;;5071775;28;20033;-78
2021/12/15 14:00:18;;;;;;;20.88;9.82;;;;;;;;;;5053119;28;20095;-78
2021/12/15 14:02:58;;;;;;;17.13;9.25;;;;;;;;;;5053409;28;20075;-79
2021/12/15 14:05:27;;;;;;;20.95;9.52;;;;;;;;;;5053441;28;20081;-78
2021/12/15 14:08:08;;;;;;;21.95;9.45;;;;;;;;;;5072652;28;20057;-80
2021/12/15 14:10:34;;;;;;;22.08;9.55;;;;;;;;;;5051463;28;20049;-78
2021/12/15 14:13:02;;;;;;;23.55;10.00;;;;;;;;;;5070615;28;20068;-79
2021/12/15 14:15:35;;;;;;;20.20;10.15;;;;;;;;;;5068119;28;20057;-78
2021/12/15 14:18:06;;;;;;;20.95;10.38;;;;;;;;;;5047665;28;20111;-79
2021/12/15 14:20:35;;;;;;;24.55;11.40;;;;;;;;;;5049879;28;20489;-80
2021/12/15 14:23:04;;;;;;;20.25;11.48;;;;;;;;;;5067172;28;20117;-79
2021/12/15 14:25:34;;;;;;;21.90;10.93;;;;;;;;;;5062946;28;20104;-78
2021/12/15 14:28:05;;;;;;;22.65;12.07;;;;;;;;;;5051060;28;20130;-80
2021/12/15 14:30:33;;;;;;;27.08;13.02;;;;;;;;;;5051213;28;20859;-80
2021/12/15 14:33:00;;;;;;;29.30;12.82;;;;;;;;;;5076284;28;20280;-80
2021/12/15 14:35:26;;;;;;;25.48;12.60;;;;;;;;;;5069773;28;20052;-77
2021/12/15 14:37:53;;;;;;;23.40;12.18;;;;;;;;;;5025113;28;20107;-79
2021/12/15 14:40:39;;;;;;;23.60;12.13;;;;;;;;;;5044689;28;20055;-78
2021/12/15 14:43:05;;;;;;;26.25;13.05;;;;;;;;;;5047117;28;20579;-79
2021/12/15 14:45:32;;;;;;;25.25;12.75;;;;;;;;;;5035345;28;20133;-79
2021/12/15 14:47:59;;;;;;;26.42;12.77;;;;;;;;;;5050275;28;20116;-77
2021/12/15 14:50:26;;;;;;;32.60;13.88;;;;;;;;;;5062947;28;20892;-79
2021/12/15 14:52:56;;;;;;;23.30;12.50;;;;;;;;;;5065980;28;20053;-79
2021/12/15 14:55:24;;;;;;;24.17;13.07;;;;;;;;;;5042036;28;20128;-79
2021/12/15 14:58:05;;;;;;;24.88;12.82;;;;;;;;;;5055540;28;20103;-80
2021/12/15 15:00:33;;;;;;;28.90;14.13;;;;;;;;;;5048812;28;20112;-79
2021/12/15 15:03:03;;;;;;;27.77;13.85;;;;;;;;;;5066748;28;20064;-79
2021/12/15 15:05:31;;;;;;;26.75;13.73;;;;;;;;;;5062388;28;20053;-78
2021/12/15 15:07:59;;;;;;;32.78;15.50;;;;;;;;;;5037770;28;20084;-78
2021/12/15 15:10:29;;;;;;;34.58;14.70;;;;;;;;;;5065182;28;20076;-79
2021/12/15 15:12:59;;;;;;;31.23;15.23;;;;;;;;;;5067613;28;20219;-79
2021/12/15 15:15:30;;;;;;;29.98;14.68;;;;;;;;;;5068854;28;20084;-79
2021/12/15 15:18:04;;;;;;;30.10;15.00;;;;;;;;;;5065363;28;20043;-78
2021/12/15 15:20:32;;;;;;;30.15;14.60;;;;;;;;;;5064061;28;20053;-77
2021/12/15 15:22:59;;;;;;;35.72;16.02;;;;;;;;;;5049382;28;20052;-78
2021/12/15 15:25:27;;;;;;;35.33;15.50;;;;;;;;;;5048961;28;20057;-80
2021/12/15 15:27:56;;;;;;;31.50;15.27;;;;;;;;;;5056375;28;20571;-79
2021/12/15 15:30:24;;;;;;;;;;;;;;;;;;5068649;28;20252;-79
2021/12/15 15:32:53;;;;;;;33.03;15.63;;;;;;;;;;5049659;28;47622;-78
2021/12/15 15:35:24;;;;;;;30.25;16.00;;;;;;;;;;5051565;28;20053;-80
2021/12/15 15:37:52;;;;;;;36.13;17.65;;;;;;;;;;5049580;28;20088;-79
2021/12/15 15:40:24;;;;;;;37.83;17.45;;;;;;;;;;5047848;28;20787;-80
2021/12/15 15:43:00;;;;;;;38.67;17.15;;;;;;;;;;5067216;28;20053;-78